sensor_id;sensor_type;location;lat;lon;timestamp;P1;durP1;ratioP1;P2;durP2;ratioP2
34767;SDS011;21755;43.608;1.236;2022-12-13T00:00:14;15.45;;;7.70;;
34767;SDS011;21755;43.608;1.236;2022-12-13T00:02:42;19.75;;;8.15;;
34767;SDS011;21755;43.608;1.236;2022-12-13T00:05:09;17.13;;;8.18;;
34767;SDS011;21755;43.608;1.236;2022-12-13T00:07:35;13.95;;;7.75;;
34767;SDS011;21755;43.608;1.236;2022-12-13T00:10:02;18.45;;;8.77;;
34767;SDS011;21755;43.608;1.236;2022-12-13T00:12:28;17.95;;;8.60;;
34767;SDS011;21755;43.608;1.236;2022-12-13T00:14:54;16.55;;;8.32;;
34767;SDS011;21755;43.608;1.236;2022-12-13T00:17:20;15.90;;;8.80;;
34767;SDS011;21755;43.608;1.236;2022-12-13T00:19:46;16.25;;;9.50;;
34767;SDS011;21755;43.608;1.236;2022-12-13T00:22:13;17.13;;;8.77;;
34767;SDS011;21755;43.608;1.236;2022-12-13T00:24:40;18.80;;;9.20;;
34767;SDS011;21755;43.608;1.236;2022-12-13T00:27:07;16.52;;;8.65;;
34767;SDS011;21755;43.608;1.236;2022-12-13T00:29:33;14.63;;;8.32;;
34767;SDS011;21755;43.608;1.236;2022-12-13T00:31:59;17.15;;;9.15;;
34767;SDS011;21755;43.608;1.236;2022-12-13T00:34:26;19.00;;;8.23;;
34767;SDS011;21755;43.608;1.236;2022-12-13T00:36:52;16.85;;;8.48;;
34767;SDS011;21755;43.608;1.236;2022-12-13T00:39:19;18.50;;;8.82;;
34767;SDS011;21755;43.608;1.236;2022-12-13T00:41:45;16.85;;;8.30;;
34767;SDS011;21755;43.608;1.236;2022-12-13T00:44:11;15.02;;;8.00;;
34767;SDS011;21755;43.608;1.236;2022-12-13T00:46:38;13.82;;;8.50;;
34767;SDS011;21755;43.608;1.236;2022-12-13T00:49:05;16.42;;;7.00;;
34767;SDS011;21755;43.608;1.236;2022-12-13T00:51:32;14.23;;;7.38;;
34767;SDS011;21755;43.608;1.236;2022-12-13T00:53:59;13.35;;;6.85;;
34767;SDS011;21755;43.608;1.236;2022-12-13T00:56:26;11.75;;;6.65;;
34767;SDS011;21755;43.608;1.236;2022-12-13T00:58:54;16.23;;;7.03;;
34767;SDS011;21755;43.608;1.236;2022-12-13T01:01:21;12.00;;;6.60;;
34767;SDS011;21755;43.608;1.236;2022-12-13T01:03:49;12.57;;;6.20;;
34767;SDS011;21755;43.608;1.236;2022-12-13T01:09:04;14.35;;;7.53;;
34767;SDS011;21755;43.608;1.236;2022-12-13T01:11:32;13.65;;;7.00;;
34767;SDS011;21755;43.608;1.236;2022-12-13T01:13:58;12.57;;;6.53;;
34767;SDS011;21755;43.608;1.236;2022-12-13T01:16:24;13.30;;;6.97;;
34767;SDS011;21755;43.608;1.236;2022-12-13T01:18:50;10.25;;;6.45;;
34767;SDS011;21755;43.608;1.236;2022-12-13T01:21:17;13.98;;;6.93;;
34767;SDS011;21755;43.608;1.236;2022-12-13T01:23:47;12.43;;;6.68;;
34767;SDS011;21755;43.608;1.236;2022-12-13T01:26:14;14.30;;;7.18;;
34767;SDS011;21755;43.608;1.236;2022-12-13T01:28:42;13.27;;;7.28;;
34767;SDS011;21755;43.608;1.236;2022-12-13T01:31:11;15.48;;;6.78;;
34767;SDS011;21755;43.608;1.236;2022-12-13T01:33:39;14.07;;;7.50;;
34767;SDS011;21755;43.608;1.236;2022-12-13T01:36:06;12.80;;;6.80;;
34767;SDS011;21755;43.608;1.236;2022-12-13T01:38:41;15.38;;;6.70;;
34767;SDS011;21755;43.608;1.236;2022-12-13T01:41:07;12.32;;;7.03;;
34767;SDS011;21755;43.608;1.236;2022-12-13T01:46:06;11.80;;;6.57;;
34767;SDS011;21755;43.608;1.236;2022-12-13T01:48:35;12.52;;;7.05;;
34767;SDS011;21755;43.608;1.236;2022-12-13T01:51:06;14.23;;;7.30;;
34767;SDS011;21755;43.608;1.236;2022-12-13T01:53:36;15.05;;;7.45;;
34767;SDS011;21755;43.608;1.236;2022-12-13T01:56:09;14.18;;;7.13;;
34767;SDS011;21755;43.608;1.236;2022-12-13T01:58:40;14.25;;;8.30;;
34767;SDS011;21755;43.608;1.236;2022-12-13T02:01:07;16.40;;;7.85;;
34767;SDS011;21755;43.608;1.236;2022-12-13T02:03:33;14.75;;;7.32;;
34767;SDS011;21755;43.608;1.236;2022-12-13T02:06:06;15.00;;;6.95;;
34767;SDS011;21755;43.608;1.236;2022-12-13T02:08:38;16.73;;;7.65;;
34767;SDS011;21755;43.608;1.236;2022-12-13T02:11:06;15.27;;;7.35;;
34767;SDS011;21755;43.608;1.236;2022-12-13T02:13:34;17.05;;;7.75;;
34767;SDS011;21755;43.608;1.236;2022-12-13T02:16:04;16.77;;;8.13;;
34767;SDS011;21755;43.608;1.236;2022-12-13T02:41:18;21.40;;;8.52;;
34767;SDS011;21755;43.608;1.236;2022-12-13T02:43:55;17.42;;;8.43;;
34767;SDS011;21755;43.608;1.236;2022-12-13T02:46:27;19.45;;;8.82;;
34767;SDS011;21755;43.608;1.236;2022-12-13T02:48:56;16.95;;;8.80;;
34767;SDS011;21755;43.608;1.236;2022-12-13T02:51:24;20.17;;;9.45;;
34767;SDS011;21755;43.608;1.236;2022-12-13T02:53:51;17.15;;;9.40;;
34767;SDS011;21755;43.608;1.236;2022-12-13T02:56:17;18.75;;;10.00;;
34767;SDS011;21755;43.608;1.236;2022-12-13T02:58:47;22.42;;;9.48;;
34767;SDS011;21755;43.608;1.236;2022-12-13T03:04:20;24.15;;;10.27;;
34767;SDS011;21755;43.608;1.236;2022-12-13T03:09:49;18.15;;;8.73;;
34767;SDS011;21755;43.608;1.236;2022-12-13T03:18:04;23.23;;;9.27;;
34767;SDS011;21755;43.608;1.236;2022-12-13T03:21:01;24.40;;;10.40;;
34767;SDS011;21755;43.608;1.236;2022-12-13T03:23:30;17.83;;;9.00;;
34767;SDS011;21755;43.608;1.236;2022-12-13T03:25:58;22.02;;;9.63;;
34767;SDS011;21755;43.608;1.236;2022-12-13T03:28:27;19.75;;;9.18;;
34767;SDS011;21755;43.608;1.236;2022-12-13T03:30:53;24.38;;;9.40;;
34767;SDS011;21755;43.608;1.236;2022-12-13T03:33:18;25.38;;;10.35;;
34767;SDS011;21755;43.608;1.236;2022-12-13T03:35:44;17.08;;;8.75;;
34767;SDS011;21755;43.608;1.236;2022-12-13T03:38:14;23.73;;;10.48;;
34767;SDS011;21755;43.608;1.236;2022-12-13T03:40:40;19.17;;;10.00;;
34767;SDS011;21755;43.608;1.236;2022-12-13T03:43:06;21.40;;;9.90;;
34767;SDS011;21755;43.608;1.236;2022-12-13T03:45:32;25.05;;;10.75;;
34767;SDS011;21755;43.608;1.236;2022-12-13T03:47:58;21.60;;;10.40;;
34767;SDS011;21755;43.608;1.236;2022-12-13T03:50:24;22.48;;;10.35;;
34767;SDS011;21755;43.608;1.236;2022-12-13T03:52:50;20.88;;;10.60;;
34767;SDS011;21755;43.608;1.236;2022-12-13T03:55:26;20.92;;;9.48;;
34767;SDS011;21755;43.608;1.236;2022-12-13T03:57:52;26.60;;;11.18;;
34767;SDS011;21755;43.608;1.236;2022-12-13T04:00:18;20.65;;;9.68;;
34767;SDS011;21755;43.608;1.236;2022-12-13T04:02:45;24.13;;;10.90;;
34767;SDS011;21755;43.608;1.236;2022-12-13T04:05:11;28.85;;;11.43;;
34767;SDS011;21755;43.608;1.236;2022-12-13T04:07:37;24.38;;;11.13;;
34767;SDS011;21755;43.608;1.236;2022-12-13T04:10:03;24.65;;;10.63;;
34767;SDS011;21755;43.608;1.236;2022-12-13T04:12:29;26.73;;;11.05;;
34767;SDS011;21755;43.608;1.236;2022-12-13T04:15:14;19.00;;;9.93;;
34767;SDS011;21755;43.608;1.236;2022-12-13T04:17:40;29.45;;;11.02;;
34767;SDS011;21755;43.608;1.236;2022-12-13T04:20:06;27.95;;;12.10;;
34767;SDS011;21755;43.608;1.236;2022-12-13T04:22:32;34.10;;;11.20;;
34767;SDS011;21755;43.608;1.236;2022-12-13T04:24:58;24.85;;;8.00;;
34767;SDS011;21755;43.608;1.236;2022-12-13T04:27:24;40.25;;;13.23;;
34767;SDS011;21755;43.608;1.236;2022-12-13T04:29:50;41.38;;;14.20;;
34767;SDS011;21755;43.608;1.236;2022-12-13T04:32:16;30.75;;;8.18;;
34767;SDS011;21755;43.608;1.236;2022-12-13T04:34:41;25.27;;;6.70;;
34767;SDS011;21755;43.608;1.236;2022-12-13T04:37:07;24.77;;;5.85;;
34767;SDS011;21755;43.608;1.236;2022-12-13T04:39:33;26.27;;;5.93;;
34767;SDS011;21755;43.608;1.236;2022-12-13T04:41:59;24.55;;;5.68;;
34767;SDS011;21755;43.608;1.236;2022-12-13T04:44:26;30.65;;;6.38;;
34767;SDS011;21755;43.608;1.236;2022-12-13T04:46:52;33.15;;;7.72;;
34767;SDS011;21755;43.608;1.236;2022-12-13T04:49:17;28.27;;;5.45;;
34767;SDS011;21755;43.608;1.236;2022-12-13T04:51:43;22.20;;;5.95;;
34767;SDS011;21755;43.608;1.236;2022-12-13T04:54:09;36.53;;;7.22;;
34767;SDS011;21755;43.608;1.236;2022-12-13T04:56:36;32.90;;;8.32;;
34767;SDS011;21755;43.608;1.236;2022-12-13T04:59:02;26.58;;;6.65;;
34767;SDS011;21755;43.608;1.236;2022-12-13T05:01:28;24.30;;;6.13;;
34767;SDS011;21755;43.608;1.236;2022-12-13T05:03:54;33.70;;;6.38;;
34767;SDS011;21755;43.608;1.236;2022-12-13T05:06:20;33.92;;;6.28;;
34767;SDS011;21755;43.608;1.236;2022-12-13T05:08:46;40.15;;;5.78;;
34767;SDS011;21755;43.608;1.236;2022-12-13T05:11:12;34.50;;;5.65;;
34767;SDS011;21755;43.608;1.236;2022-12-13T05:13:38;35.78;;;5.28;;
34767;SDS011;21755;43.608;1.236;2022-12-13T05:16:04;35.15;;;4.72;;
34767;SDS011;21755;43.608;1.236;2022-12-13T05:18:32;30.15;;;4.22;;
34767;SDS011;21755;43.608;1.236;2022-12-13T05:21:06;33.22;;;4.90;;
34767;SDS011;21755;43.608;1.236;2022-12-13T05:23:34;27.92;;;4.88;;
34767;SDS011;21755;43.608;1.236;2022-12-13T05:26:00;29.48;;;3.78;;
34767;SDS011;21755;43.608;1.236;2022-12-13T05:28:27;29.92;;;3.65;;
34767;SDS011;21755;43.608;1.236;2022-12-13T05:30:54;20.50;;;3.42;;
34767;SDS011;21755;43.608;1.236;2022-12-13T05:33:22;22.88;;;3.50;;
34767;SDS011;21755;43.608;1.236;2022-12-13T05:35:49;24.77;;;3.13;;
34767;SDS011;21755;43.608;1.236;2022-12-13T05:38:16;18.92;;;3.65;;
34767;SDS011;21755;43.608;1.236;2022-12-13T05:40:42;22.23;;;3.08;;
34767;SDS011;21755;43.608;1.236;2022-12-13T05:43:11;23.58;;;4.10;;
34767;SDS011;21755;43.608;1.236;2022-12-13T05:45:38;33.47;;;4.70;;
34767;SDS011;21755;43.608;1.236;2022-12-13T05:48:04;26.67;;;4.40;;
34767;SDS011;21755;43.608;1.236;2022-12-13T05:50:30;20.88;;;3.65;;
34767;SDS011;21755;43.608;1.236;2022-12-13T05:52:56;23.13;;;3.03;;
34767;SDS011;21755;43.608;1.236;2022-12-13T05:55:22;24.63;;;3.25;;
34767;SDS011;21755;43.608;1.236;2022-12-13T05:57:47;20.95;;;3.08;;
34767;SDS011;21755;43.608;1.236;2022-12-13T06:00:13;21.67;;;4.43;;
34767;SDS011;21755;43.608;1.236;2022-12-13T06:02:40;22.10;;;3.75;;
34767;SDS011;21755;43.608;1.236;2022-12-13T06:05:08;25.83;;;3.70;;
34767;SDS011;21755;43.608;1.236;2022-12-13T06:07:35;21.58;;;2.95;;
34767;SDS011;21755;43.608;1.236;2022-12-13T06:10:02;23.05;;;4.00;;
34767;SDS011;21755;43.608;1.236;2022-12-13T06:12:29;28.58;;;3.38;;
34767;SDS011;21755;43.608;1.236;2022-12-13T06:14:55;31.02;;;4.18;;
34767;SDS011;21755;43.608;1.236;2022-12-13T06:17:21;22.95;;;3.30;;
34767;SDS011;21755;43.608;1.236;2022-12-13T06:19:49;22.08;;;3.03;;
34767;SDS011;21755;43.608;1.236;2022-12-13T06:22:16;27.08;;;3.33;;
34767;SDS011;21755;43.608;1.236;2022-12-13T06:24:42;24.30;;;3.55;;
34767;SDS011;21755;43.608;1.236;2022-12-13T06:27:08;20.05;;;3.97;;
34767;SDS011;21755;43.608;1.236;2022-12-13T06:29:34;22.17;;;3.47;;
34767;SDS011;21755;43.608;1.236;2022-12-13T06:32:01;25.85;;;3.72;;
34767;SDS011;21755;43.608;1.236;2022-12-13T06:34:28;13.32;;;2.78;;
34767;SDS011;21755;43.608;1.236;2022-12-13T06:36:55;26.48;;;3.45;;
34767;SDS011;21755;43.608;1.236;2022-12-13T06:39:21;32.40;;;3.95;;
34767;SDS011;21755;43.608;1.236;2022-12-13T06:41:47;17.58;;;3.40;;
34767;SDS011;21755;43.608;1.236;2022-12-13T06:44:13;32.25;;;4.32;;
34767;SDS011;21755;43.608;1.236;2022-12-13T06:46:39;24.15;;;3.88;;
34767;SDS011;21755;43.608;1.236;2022-12-13T06:49:05;25.67;;;3.58;;
34767;SDS011;21755;43.608;1.236;2022-12-13T06:51:32;28.10;;;4.75;;
34767;SDS011;21755;43.608;1.236;2022-12-13T06:54:01;18.67;;;3.00;;
34767;SDS011;21755;43.608;1.236;2022-12-13T06:56:28;14.05;;;4.38;;
34767;SDS011;21755;43.608;1.236;2022-12-13T06:58:54;9.25;;;3.85;;
34767;SDS011;21755;43.608;1.236;2022-12-13T07:01:20;11.77;;;4.28;;
34767;SDS011;21755;43.608;1.236;2022-12-13T07:03:46;9.85;;;4.55;;
34767;SDS011;21755;43.608;1.236;2022-12-13T07:06:13;11.68;;;4.22;;
34767;SDS011;21755;43.608;1.236;2022-12-13T07:08:46;8.88;;;4.28;;
34767;SDS011;21755;43.608;1.236;2022-12-13T07:11:14;7.20;;;4.47;;
34767;SDS011;21755;43.608;1.236;2022-12-13T07:13:41;15.57;;;5.80;;
34767;SDS011;21755;43.608;1.236;2022-12-13T07:16:08;10.93;;;4.82;;
34767;SDS011;21755;43.608;1.236;2022-12-13T07:18:34;13.52;;;5.65;;
34767;SDS011;21755;43.608;1.236;2022-12-13T07:21:03;16.95;;;5.90;;
34767;SDS011;21755;43.608;1.236;2022-12-13T07:23:30;8.38;;;4.93;;
34767;SDS011;21755;43.608;1.236;2022-12-13T07:25:56;11.73;;;5.47;;
34767;SDS011;21755;43.608;1.236;2022-12-13T07:28:21;16.00;;;6.03;;
34767;SDS011;21755;43.608;1.236;2022-12-13T07:30:47;13.32;;;5.97;;
34767;SDS011;21755;43.608;1.236;2022-12-13T07:33:13;16.23;;;6.15;;
34767;SDS011;21755;43.608;1.236;2022-12-13T07:35:39;14.02;;;6.45;;
34767;SDS011;21755;43.608;1.236;2022-12-13T07:38:06;12.07;;;6.18;;
34767;SDS011;21755;43.608;1.236;2022-12-13T07:40:37;12.52;;;6.05;;
34767;SDS011;21755;43.608;1.236;2022-12-13T07:43:04;13.38;;;4.70;;
34767;SDS011;21755;43.608;1.236;2022-12-13T07:45:31;10.45;;;5.25;;
34767;SDS011;21755;43.608;1.236;2022-12-13T07:47:58;17.83;;;6.40;;
34767;SDS011;21755;43.608;1.236;2022-12-13T07:50:28;22.35;;;7.90;;
34767;SDS011;21755;43.608;1.236;2022-12-13T07:52:54;31.65;;;7.18;;
34767;SDS011;21755;43.608;1.236;2022-12-13T07:55:20;36.88;;;7.25;;
34767;SDS011;21755;43.608;1.236;2022-12-13T07:57:47;35.65;;;6.57;;
34767;SDS011;21755;43.608;1.236;2022-12-13T08:00:13;28.02;;;5.80;;
34767;SDS011;21755;43.608;1.236;2022-12-13T08:02:39;38.63;;;5.78;;
34767;SDS011;21755;43.608;1.236;2022-12-13T08:05:06;24.15;;;4.55;;
34767;SDS011;21755;43.608;1.236;2022-12-13T08:07:32;22.25;;;6.63;;
34767;SDS011;21755;43.608;1.236;2022-12-13T08:09:58;22.75;;;9.25;;
34767;SDS011;21755;43.608;1.236;2022-12-13T08:12:24;18.02;;;9.85;;
34767;SDS011;21755;43.608;1.236;2022-12-13T08:14:50;19.63;;;9.60;;
34767;SDS011;21755;43.608;1.236;2022-12-13T08:17:16;20.95;;;9.38;;
34767;SDS011;21755;43.608;1.236;2022-12-13T08:19:42;16.85;;;8.77;;
34767;SDS011;21755;43.608;1.236;2022-12-13T08:22:11;21.40;;;9.82;;
34767;SDS011;21755;43.608;1.236;2022-12-13T08:24:38;17.50;;;9.88;;
34767;SDS011;21755;43.608;1.236;2022-12-13T08:27:04;17.85;;;9.77;;
34767;SDS011;21755;43.608;1.236;2022-12-13T08:29:31;18.08;;;8.90;;
34767;SDS011;21755;43.608;1.236;2022-12-13T08:31:58;17.73;;;9.07;;
34767;SDS011;21755;43.608;1.236;2022-12-13T08:34:25;22.05;;;9.73;;
34767;SDS011;21755;43.608;1.236;2022-12-13T08:36:51;17.98;;;9.68;;
34767;SDS011;21755;43.608;1.236;2022-12-13T08:39:17;18.23;;;9.57;;
34767;SDS011;21755;43.608;1.236;2022-12-13T08:41:43;19.52;;;10.15;;
34767;SDS011;21755;43.608;1.236;2022-12-13T08:44:09;23.23;;;10.48;;
34767;SDS011;21755;43.608;1.236;2022-12-13T08:46:35;19.77;;;9.43;;
34767;SDS011;21755;43.608;1.236;2022-12-13T08:49:00;14.15;;;8.40;;
34767;SDS011;21755;43.608;1.236;2022-12-13T08:51:26;20.25;;;9.40;;
34767;SDS011;21755;43.608;1.236;2022-12-13T08:53:53;21.73;;;12.50;;
34767;SDS011;21755;43.608;1.236;2022-12-13T08:56:19;21.85;;;13.18;;
34767;SDS011;21755;43.608;1.236;2022-12-13T08:58:47;27.52;;;16.85;;
34767;SDS011;21755;43.608;1.236;2022-12-13T09:01:15;25.52;;;14.98;;
34767;SDS011;21755;43.608;1.236;2022-12-13T09:03:41;22.95;;;11.82;;
34767;SDS011;21755;43.608;1.236;2022-12-13T09:06:08;25.50;;;14.00;;
34767;SDS011;21755;43.608;1.236;2022-12-13T09:08:36;28.17;;;13.18;;
34767;SDS011;21755;43.608;1.236;2022-12-13T09:11:02;33.75;;;21.95;;
34767;SDS011;21755;43.608;1.236;2022-12-13T09:13:30;29.83;;;15.77;;
34767;SDS011;21755;43.608;1.236;2022-12-13T09:15:57;25.10;;;13.43;;
34767;SDS011;21755;43.608;1.236;2022-12-13T09:18:24;22.83;;;11.23;;
34767;SDS011;21755;43.608;1.236;2022-12-13T09:20:50;17.88;;;10.30;;
34767;SDS011;21755;43.608;1.236;2022-12-13T09:23:16;21.95;;;9.88;;
34767;SDS011;21755;43.608;1.236;2022-12-13T09:25:42;28.58;;;12.05;;
34767;SDS011;21755;43.608;1.236;2022-12-13T09:28:08;21.52;;;10.70;;
34767;SDS011;21755;43.608;1.236;2022-12-13T09:30:35;21.98;;;9.38;;
34767;SDS011;21755;43.608;1.236;2022-12-13T09:33:02;21.73;;;10.30;;
34767;SDS011;21755;43.608;1.236;2022-12-13T09:35:28;19.73;;;10.23;;
34767;SDS011;21755;43.608;1.236;2022-12-13T09:37:54;25.23;;;11.60;;
34767;SDS011;21755;43.608;1.236;2022-12-13T09:40:21;20.02;;;10.85;;
34767;SDS011;21755;43.608;1.236;2022-12-13T09:42:51;22.45;;;9.63;;
34767;SDS011;21755;43.608;1.236;2022-12-13T09:45:19;25.75;;;10.73;;
34767;SDS011;21755;43.608;1.236;2022-12-13T09:47:46;15.15;;;8.80;;
34767;SDS011;21755;43.608;1.236;2022-12-13T09:50:14;23.35;;;12.10;;
34767;SDS011;21755;43.608;1.236;2022-12-13T09:52:49;31.52;;;15.13;;
34767;SDS011;21755;43.608;1.236;2022-12-13T09:55:19;33.03;;;15.15;;
34767;SDS011;21755;43.608;1.236;2022-12-13T09:57:48;29.00;;;12.43;;
34767;SDS011;21755;43.608;1.236;2022-12-13T10:00:17;23.15;;;13.20;;
34767;SDS011;21755;43.608;1.236;2022-12-13T10:02:49;23.88;;;13.63;;
34767;SDS011;21755;43.608;1.236;2022-12-13T10:05:33;30.67;;;13.48;;
34767;SDS011;21755;43.608;1.236;2022-12-13T10:08:10;28.13;;;13.95;;
34767;SDS011;21755;43.608;1.236;2022-12-13T10:10:40;28.73;;;15.05;;
34767;SDS011;21755;43.608;1.236;2022-12-13T10:13:09;25.33;;;13.95;;
34767;SDS011;21755;43.608;1.236;2022-12-13T10:15:45;28.40;;;14.75;;
34767;SDS011;21755;43.608;1.236;2022-12-13T10:18:18;27.65;;;13.35;;
34767;SDS011;21755;43.608;1.236;2022-12-13T10:20:55;26.73;;;12.35;;
34767;SDS011;21755;43.608;1.236;2022-12-13T10:23:22;23.23;;;11.80;;
34767;SDS011;21755;43.608;1.236;2022-12-13T10:25:52;26.80;;;11.93;;
34767;SDS011;21755;43.608;1.236;2022-12-13T10:28:26;30.13;;;11.65;;
34767;SDS011;21755;43.608;1.236;2022-12-13T10:30:55;24.02;;;12.25;;
34767;SDS011;21755;43.608;1.236;2022-12-13T10:33:23;27.63;;;12.20;;
34767;SDS011;21755;43.608;1.236;2022-12-13T10:36:04;27.20;;;11.82;;
34767;SDS011;21755;43.608;1.236;2022-12-13T10:38:35;21.83;;;11.50;;
34767;SDS011;21755;43.608;1.236;2022-12-13T10:44:17;21.02;;;11.80;;
34767;SDS011;21755;43.608;1.236;2022-12-13T10:49:33;27.80;;;12.45;;
34767;SDS011;21755;43.608;1.236;2022-12-13T10:52:00;26.90;;;11.55;;
34767;SDS011;21755;43.608;1.236;2022-12-13T10:54:30;25.63;;;13.48;;
34767;SDS011;21755;43.608;1.236;2022-12-13T10:57:00;29.70;;;14.80;;
34767;SDS011;21755;43.608;1.236;2022-12-13T10:59:31;27.75;;;14.63;;
34767;SDS011;21755;43.608;1.236;2022-12-13T11:02:01;28.13;;;15.43;;
34767;SDS011;21755;43.608;1.236;2022-12-13T11:04:47;25.27;;;14.23;;
34767;SDS011;21755;43.608;1.236;2022-12-13T11:07:29;27.38;;;13.80;;
34767;SDS011;21755;43.608;1.236;2022-12-13T11:09:57;25.80;;;12.77;;
34767;SDS011;21755;43.608;1.236;2022-12-13T11:12:39;26.35;;;13.25;;
34767;SDS011;21755;43.608;1.236;2022-12-13T11:15:06;28.67;;;13.27;;
34767;SDS011;21755;43.608;1.236;2022-12-13T11:17:44;25.80;;;14.27;;
34767;SDS011;21755;43.608;1.236;2022-12-13T11:20:18;24.42;;;13.38;;
34767;SDS011;21755;43.608;1.236;2022-12-13T11:22:48;31.42;;;15.60;;
34767;SDS011;21755;43.608;1.236;2022-12-13T11:25:24;29.83;;;15.98;;
34767;SDS011;21755;43.608;1.236;2022-12-13T11:27:59;40.35;;;16.80;;
34767;SDS011;21755;43.608;1.236;2022-12-13T11:30:51;33.13;;;17.08;;
34767;SDS011;21755;43.608;1.236;2022-12-13T11:33:26;30.20;;;16.10;;
34767;SDS011;21755;43.608;1.236;2022-12-13T11:41:48;21.48;;;10.68;;
34767;SDS011;21755;43.608;1.236;2022-12-13T11:44:58;23.38;;;11.07;;
34767;SDS011;21755;43.608;1.236;2022-12-13T11:47:25;26.00;;;11.75;;
34767;SDS011;21755;43.608;1.236;2022-12-13T11:50:00;19.27;;;9.40;;
34767;SDS011;21755;43.608;1.236;2022-12-13T11:52:37;23.30;;;11.77;;
34767;SDS011;21755;43.608;1.236;2022-12-13T11:55:13;26.23;;;11.60;;
34767;SDS011;21755;43.608;1.236;2022-12-13T12:00:32;23.15;;;10.88;;
34767;SDS011;21755;43.608;1.236;2022-12-13T12:05:39;24.70;;;11.63;;
34767;SDS011;21755;43.608;1.236;2022-12-13T12:11:22;26.63;;;11.73;;
34767;SDS011;21755;43.608;1.236;2022-12-13T12:14:17;18.10;;;11.05;;
34767;SDS011;21755;43.608;1.236;2022-12-13T12:17:05;22.42;;;10.80;;
34767;SDS011;21755;43.608;1.236;2022-12-13T12:19:34;19.73;;;9.75;;
34767;SDS011;21755;43.608;1.236;2022-12-13T12:22:09;21.17;;;10.20;;
34767;SDS011;21755;43.608;1.236;2022-12-13T12:24:52;23.48;;;11.80;;
34767;SDS011;21755;43.608;1.236;2022-12-13T12:27:39;23.77;;;11.52;;
34767;SDS011;21755;43.608;1.236;2022-12-13T12:33:21;26.05;;;11.93;;
34767;SDS011;21755;43.608;1.236;2022-12-13T12:36:11;25.00;;;10.65;;
34767;SDS011;21755;43.608;1.236;2022-12-13T12:39:17;20.73;;;10.80;;
34767;SDS011;21755;43.608;1.236;2022-12-13T12:52:45;30.35;;;12.32;;
34767;SDS011;21755;43.608;1.236;2022-12-13T12:55:27;22.42;;;12.02;;
34767;SDS011;21755;43.608;1.236;2022-12-13T13:01:00;25.75;;;11.07;;
34767;SDS011;21755;43.608;1.236;2022-12-13T13:03:28;21.98;;;10.90;;
34767;SDS011;21755;43.608;1.236;2022-12-13T13:06:08;28.75;;;12.70;;
34767;SDS011;21755;43.608;1.236;2022-12-13T13:11:14;25.70;;;12.48;;
34767;SDS011;21755;43.608;1.236;2022-12-13T13:16:27;23.30;;;12.05;;
34767;SDS011;21755;43.608;1.236;2022-12-13T13:21:52;25.55;;;14.73;;
34767;SDS011;21755;43.608;1.236;2022-12-13T13:24:21;45.25;;;18.58;;
34767;SDS011;21755;43.608;1.236;2022-12-13T13:26:52;26.95;;;12.98;;
34767;SDS011;21755;43.608;1.236;2022-12-13T13:29:39;23.75;;;12.70;;
34767;SDS011;21755;43.608;1.236;2022-12-13T13:34:41;26.58;;;13.73;;
34767;SDS011;21755;43.608;1.236;2022-12-13T13:39:56;22.30;;;13.35;;
34767;SDS011;21755;43.608;1.236;2022-12-13T13:45:26;26.67;;;13.07;;
34767;SDS011;21755;43.608;1.236;2022-12-13T13:50:44;20.88;;;11.73;;
34767;SDS011;21755;43.608;1.236;2022-12-13T14:13:06;24.98;;;11.10;;
34767;SDS011;21755;43.608;1.236;2022-12-13T14:29:47;27.52;;;14.35;;
34767;SDS011;21755;43.608;1.236;2022-12-13T14:32:34;26.10;;;14.30;;
34767;SDS011;21755;43.608;1.236;2022-12-13T14:35:02;20.05;;;12.07;;
34767;SDS011;21755;43.608;1.236;2022-12-13T14:37:29;29.85;;;12.85;;
34767;SDS011;21755;43.608;1.236;2022-12-13T14:39:58;21.40;;;11.68;;
34767;SDS011;21755;43.608;1.236;2022-12-13T14:42:26;27.15;;;11.82;;
34767;SDS011;21755;43.608;1.236;2022-12-13T14:48:04;21.52;;;10.73;;
34767;SDS011;21755;43.608;1.236;2022-12-13T14:50:37;24.30;;;10.93;;
34767;SDS011;21755;43.608;1.236;2022-12-13T14:53:06;22.17;;;11.68;;
34767;SDS011;21755;43.608;1.236;2022-12-13T14:55:33;18.10;;;11.20;;
34767;SDS011;21755;43.608;1.236;2022-12-13T14:58:01;17.92;;;10.75;;
34767;SDS011;21755;43.608;1.236;2022-12-13T15:00:33;19.60;;;11.15;;
34767;SDS011;21755;43.608;1.236;2022-12-13T15:03:03;22.13;;;11.88;;
34767;SDS011;21755;43.608;1.236;2022-12-13T15:08:14;25.48;;;12.05;;
34767;SDS011;21755;43.608;1.236;2022-12-13T15:16:13;19.80;;;10.75;;
34767;SDS011;21755;43.608;1.236;2022-12-13T15:18:43;19.13;;;10.57;;
34767;SDS011;21755;43.608;1.236;2022-12-13T15:21:16;25.63;;;10.63;;
34767;SDS011;21755;43.608;1.236;2022-12-13T15:23:50;16.27;;;9.88;;
34767;SDS011;21755;43.608;1.236;2022-12-13T15:26:18;19.98;;;9.23;;
34767;SDS011;21755;43.608;1.236;2022-12-13T15:28:48;17.98;;;9.00;;
34767;SDS011;21755;43.608;1.236;2022-12-13T15:31:21;19.05;;;9.80;;
34767;SDS011;21755;43.608;1.236;2022-12-13T15:33:48;14.70;;;8.35;;
34767;SDS011;21755;43.608;1.236;2022-12-13T15:36:19;17.52;;;8.70;;
34767;SDS011;21755;43.608;1.236;2022-12-13T15:41:21;16.92;;;10.73;;
34767;SDS011;21755;43.608;1.236;2022-12-13T15:47:12;19.23;;;10.00;;
34767;SDS011;21755;43.608;1.236;2022-12-13T15:49:43;24.15;;;11.25;;
34767;SDS011;21755;43.608;1.236;2022-12-13T15:52:25;21.33;;;12.88;;
34767;SDS011;21755;43.608;1.236;2022-12-13T15:57:47;22.38;;;11.60;;
34767;SDS011;21755;43.608;1.236;2022-12-13T16:00:20;24.50;;;12.48;;
34767;SDS011;21755;43.608;1.236;2022-12-13T16:05:30;22.88;;;11.68;;
34767;SDS011;21755;43.608;1.236;2022-12-13T16:08:16;31.98;;;12.98;;
34767;SDS011;21755;43.608;1.236;2022-12-13T16:10:51;26.80;;;12.02;;
34767;SDS011;21755;43.608;1.236;2022-12-13T16:15:54;20.48;;;12.55;;
34767;SDS011;21755;43.608;1.236;2022-12-13T16:18:27;20.60;;;11.05;;
34767;SDS011;21755;43.608;1.236;2022-12-13T16:21:05;20.33;;;10.67;;
34767;SDS011;21755;43.608;1.236;2022-12-13T16:23:32;20.13;;;10.65;;
34767;SDS011;21755;43.608;1.236;2022-12-13T16:25:58;20.98;;;11.02;;
34767;SDS011;21755;43.608;1.236;2022-12-13T16:28:24;22.95;;;11.48;;
34767;SDS011;21755;43.608;1.236;2022-12-13T16:33:28;25.90;;;10.80;;
34767;SDS011;21755;43.608;1.236;2022-12-13T16:35:54;19.35;;;11.07;;
34767;SDS011;21755;43.608;1.236;2022-12-13T16:38:20;22.80;;;11.48;;
34767;SDS011;21755;43.608;1.236;2022-12-13T16:40:47;21.85;;;9.77;;
34767;SDS011;21755;43.608;1.236;2022-12-13T16:43:17;17.33;;;9.05;;
34767;SDS011;21755;43.608;1.236;2022-12-13T16:45:46;16.55;;;8.20;;
34767;SDS011;21755;43.608;1.236;2022-12-13T16:48:14;18.52;;;7.75;;
34767;SDS011;21755;43.608;1.236;2022-12-13T16:50:43;17.80;;;7.30;;
34767;SDS011;21755;43.608;1.236;2022-12-13T16:53:13;17.63;;;7.10;;
34767;SDS011;21755;43.608;1.236;2022-12-13T16:55:39;15.88;;;6.70;;
34767;SDS011;21755;43.608;1.236;2022-12-13T16:58:08;14.65;;;6.45;;
34767;SDS011;21755;43.608;1.236;2022-12-13T17:00:36;12.82;;;7.30;;
34767;SDS011;21755;43.608;1.236;2022-12-13T17:03:05;15.75;;;7.13;;
34767;SDS011;21755;43.608;1.236;2022-12-13T17:05:33;18.08;;;8.07;;
34767;SDS011;21755;43.608;1.236;2022-12-13T17:08:01;12.43;;;7.25;;
34767;SDS011;21755;43.608;1.236;2022-12-13T17:10:27;27.08;;;9.20;;
34767;SDS011;21755;43.608;1.236;2022-12-13T17:12:53;15.93;;;7.32;;
34767;SDS011;21755;43.608;1.236;2022-12-13T17:15:19;15.07;;;7.90;;
34767;SDS011;21755;43.608;1.236;2022-12-13T17:17:45;18.30;;;8.45;;